createdAt,value
2016-08-02T00:00:23.740Z,48.95
2016-08-02T00:01:23.705Z,49.17
2016-08-02T00:02:23.874Z,49.44
2016-08-02T00:03:23.027Z,48.76
2016-08-02T00:04:24.041Z,48.95
2016-08-02T00:05:23.722Z,48.86
2016-08-02T00:06:24.076Z,48.86
2016-08-02T00:07:24.229Z,48.57
2016-08-02T00:08:23.753Z,49.15
2016-08-02T00:09:24.226Z,48.76
2016-08-02T00:10:24.153Z,49.15
2016-08-02T00:11:23.090Z,48.86
2016-08-02T00:12:23.775Z,48.76
2016-08-02T00:13:23.827Z,48.86
2016-08-02T00:14:23.859Z,49.05
2016-08-02T00:15:24.110Z,48.86
2016-08-02T00:16:23.125Z,49.05
2016-08-02T00:17:23.081Z,48.86
2016-08-02T00:18:24.267Z,49.92
2016-08-02T00:19:23.078Z,49.73
2016-08-02T00:20:23.837Z,49.15
2016-08-02T00:21:23.827Z,49.05
2016-08-02T00:22:23.878Z,49.05
2016-08-02T00:23:24.875Z,49.05
2016-08-02T00:24:23.111Z,48.76
2016-08-02T00:25:23.095Z,48.86
2016-08-02T00:26:23.922Z,49.15
2016-08-02T00:27:23.209Z,48.95
2016-08-02T00:28:23.119Z,49.05
2016-08-02T00:29:23.931Z,48.76
2016-08-02T00:30:24.925Z,49.15
2016-08-02T00:31:23.909Z,48.95
2016-08-02T00:32:23.940Z,49.34
2016-08-02T00:33:23.236Z,49.05
2016-08-02T00:34:23.892Z,48.95
2016-08-02T00:35:24.565Z,48.86
2016-08-02T00:36:23.949Z,49.24
2016-08-02T00:37:23.977Z,48.95
2016-08-02T00:38:23.994Z,49.15
2016-08-02T00:39:24.006Z,49.15
2016-08-02T00:40:24.035Z,49.05
2016-08-02T00:41:24.005Z,49.05
2016-08-02T00:42:23.393Z,49.05
2016-08-02T00:43:23.992Z,49.34
2016-08-02T00:44:24.017Z,48.95
2016-08-02T00:45:24.014Z,49.05
2016-08-02T00:46:23.312Z,49.44
2016-08-02T00:47:24.567Z,49.63
2016-08-02T00:48:24.059Z,49.15
2016-08-02T00:49:24.062Z,48.95
2016-08-02T00:50:24.103Z,49.05
2016-08-02T00:51:24.044Z,49.44
2016-08-02T00:52:24.455Z,48.86
2016-08-02T00:53:24.170Z,49.05
2016-08-02T00:54:24.055Z,49.15
2016-08-02T00:55:24.124Z,49.34
2016-08-02T00:56:24.035Z,49.44
2016-08-02T00:57:25.002Z,49.44
2016-08-02T00:58:24.692Z,49.24
2016-08-02T00:59:25.306Z,49.44
2016-08-02T01:00:24.068Z,49.44
2016-08-02T01:01:24.127Z,49.05
2016-08-02T01:02:23.414Z,49.82
2016-08-02T01:03:24.076Z,49.44
2016-08-02T01:04:24.095Z,49.54
2016-08-02T01:05:24.079Z,49.63
2016-08-02T01:06:24.214Z,49.44
2016-08-02T01:07:24.179Z,49.82
2016-08-02T01:08:23.522Z,49.92
2016-08-02T01:09:24.228Z,50.02
2016-08-02T01:10:24.271Z,49.44
2016-08-02T01:11:24.177Z,49.82
2016-08-02T01:12:24.320Z,48.95
2016-08-02T01:13:24.157Z,49.34
2016-08-02T01:14:24.295Z,49.44
2016-08-02T01:15:24.256Z,48.95
2016-08-02T01:16:24.196Z,49.44
2016-08-02T01:17:24.238Z,48.95
2016-08-02T01:18:23.443Z,49.44
2016-08-02T01:19:23.519Z,49.44
2016-08-02T01:20:23.527Z,48.86
2016-08-02T01:21:23.464Z,49.05
2016-08-02T01:22:24.268Z,49.15
2016-08-02T01:23:23.473Z,49.05
2016-08-02T01:24:24.267Z,49.15
2016-08-02T01:25:23.689Z,49.15
2016-08-02T01:26:24.254Z,49.05
2016-08-02T01:27:24.264Z,49.44
2016-08-02T01:28:24.289Z,49.15
2016-08-02T01:29:24.164Z,49.44
2016-08-02T01:30:23.524Z,49.05
2016-08-02T01:31:23.535Z,49.05
2016-08-02T01:32:24.369Z,49.05
2016-08-02T01:33:24.293Z,49.15
2016-08-02T01:34:23.580Z,48.95
2016-08-02T01:35:24.349Z,49.34
2016-08-02T01:36:23.647Z,49.54
2016-08-02T01:37:25.286Z,49.05
2016-08-02T01:38:24.531Z,49.34
2016-08-02T01:39:23.622Z,49.63
2016-08-02T01:40:24.369Z,49.54
2016-08-02T01:41:24.374Z,49.54
2016-08-02T01:42:23.602Z,49.63
2016-08-02T01:43:24.439Z,49.44
2016-08-02T01:44:24.419Z,49.54
2016-08-02T01:45:24.506Z,49.05
2016-08-02T01:46:24.403Z,49.15
2016-08-02T01:47:24.362Z,48.95
2016-08-02T01:48:24.354Z,49.05
2016-08-02T01:49:24.354Z,48.95
2016-08-02T01:50:24.480Z,48.95
2016-08-02T01:51:24.452Z,49.15
2016-08-02T01:52:23.697Z,49.54
2016-08-02T01:53:23.819Z,49.05
2016-08-02T01:54:24.418Z,49.24
2016-08-02T01:55:24.485Z,49.05
2016-08-02T01:56:24.578Z,48.95
2016-08-02T01:57:24.471Z,49.15
2016-08-02T01:58:24.491Z,49.54
2016-08-02T01:59:24.603Z,48.86
2016-08-02T02:00:25.356Z,48.86
2016-08-02T02:01:24.479Z,49.34
2016-08-02T02:02:23.727Z,48.95
2016-08-02T02:03:24.510Z,49.24
2016-08-02T02:04:23.739Z,48.86
2016-08-02T02:05:24.631Z,48.86
2016-08-02T02:06:23.757Z,49.05
2016-08-02T02:07:23.833Z,48.86
2016-08-02T02:08:24.703Z,49.15
2016-08-02T02:09:23.790Z,48.86
2016-08-02T02:10:24.555Z,48.86
2016-08-02T02:11:24.545Z,49.34
2016-08-02T02:12:24.609Z,49.24
2016-08-02T02:13:23.940Z,49.15
2016-08-02T02:14:24.580Z,49.05
2016-08-02T02:15:24.513Z,48.86
2016-08-02T02:16:24.465Z,48.76
2016-08-02T02:17:23.893Z,49.05
2016-08-02T02:18:24.535Z,48.66
2016-08-02T02:19:24.630Z,48.86
2016-08-02T02:20:23.902Z,48.86
2016-08-02T02:21:24.678Z,49.15
2016-08-02T02:22:23.936Z,49.24
2016-08-02T02:23:24.627Z,49.34
2016-08-02T02:24:24.761Z,49.34
2016-08-02T02:25:24.627Z,49.05
2016-08-02T02:26:23.946Z,49.24
2016-08-02T02:27:24.043Z,49.54
2016-08-02T02:28:23.943Z,49.05
2016-08-02T02:29:24.434Z,49.05
2016-08-02T02:30:24.648Z,48.95
2016-08-02T02:31:23.906Z,48.76
2016-08-02T02:32:24.733Z,48.95
2016-08-02T02:33:24.103Z,48.86
2016-08-02T02:34:24.729Z,48.86
2016-08-02T02:35:24.639Z,49.15
2016-08-02T02:36:24.041Z,48.66
2016-08-02T02:37:25.318Z,49.15
2016-08-02T02:38:24.023Z,49.15
2016-08-02T02:39:24.045Z,48.76
2016-08-02T02:40:24.819Z,49.15
2016-08-02T02:41:24.785Z,49.02
2016-08-02T02:42:24.744Z,48.95
2016-08-02T02:43:24.114Z,49.54
2016-08-02T02:44:24.011Z,48.74
2016-08-02T02:45:24.857Z,49.24
2016-08-02T02:46:24.063Z,48.86
2016-08-02T02:47:24.767Z,48.64
2016-08-02T02:48:24.769Z,49.22
2016-08-02T02:49:24.825Z,48.64
2016-08-02T02:50:24.802Z,48.76
2016-08-02T02:51:24.205Z,48.86
2016-08-02T02:52:24.110Z,49.6
2016-08-02T02:53:24.920Z,49.12
2016-08-02T02:54:24.117Z,48.93
2016-08-02T02:55:24.058Z,48.93
2016-08-02T02:56:25.508Z,49.8
2016-08-02T02:57:24.080Z,49.51
2016-08-02T02:58:24.790Z,49.22
2016-08-02T02:59:24.125Z,49.8
2016-08-02T03:00:24.810Z,49.7
2016-08-02T03:01:24.874Z,49.6
2016-08-02T03:02:24.817Z,49.41
2016-08-02T03:03:24.953Z,49.6
2016-08-02T03:04:24.971Z,49.7
2016-08-02T03:05:24.858Z,49.8
2016-08-02T03:06:24.163Z,49.6
2016-08-02T03:07:24.974Z,49.7
2016-08-02T03:08:25.028Z,49.8
2016-08-02T03:09:24.960Z,49.51
2016-08-02T03:10:24.875Z,49.51
2016-08-02T03:11:25.047Z,49.7
2016-08-02T03:12:24.990Z,49.51
2016-08-02T03:13:25.051Z,49.99
2016-08-02T03:14:24.950Z,49.92
2016-08-02T03:15:25.038Z,49.51
2016-08-02T03:16:24.974Z,49.54
2016-08-02T03:17:24.279Z,49.6
2016-08-02T03:18:24.959Z,49.51
2016-08-02T03:19:24.272Z,49.6
2016-08-02T03:20:24.975Z,49.7
2016-08-02T03:21:25.028Z,49.7
2016-08-02T03:22:25.002Z,49.8
2016-08-02T03:23:24.290Z,49.6
2016-08-02T03:25:24.960Z,49.63
2016-08-02T03:26:25.093Z,49.12
2016-08-02T03:27:25.153Z,49.22
2016-08-02T03:28:24.399Z,49.8
2016-08-02T03:29:25.101Z,49.82
2016-08-02T03:30:25.013Z,49.7
2016-08-02T03:31:25.020Z,49.82
2016-08-02T03:32:25.039Z,49.92
2016-08-02T03:33:24.402Z,49.92
2016-08-02T03:34:25.139Z,49.63
2016-08-02T03:35:25.086Z,49.44
2016-08-02T03:36:25.121Z,49.63
2016-08-02T03:37:25.185Z,49.44
2016-08-02T03:38:25.050Z,49.41
2016-08-02T03:39:25.175Z,49.82
2016-08-02T03:40:25.202Z,49.63
2016-08-02T03:41:25.062Z,49.44
2016-08-02T03:42:24.359Z,49.7
2016-08-02T03:43:24.367Z,49.7
2016-08-02T03:44:25.164Z,49.6
2016-08-02T03:45:25.148Z,49.6
2016-08-02T03:46:25.101Z,49.6
2016-08-02T03:47:24.540Z,49.7
2016-08-02T03:48:25.195Z,49.6
2016-08-02T03:49:25.145Z,49.6
2016-08-02T03:50:25.293Z,49.6
2016-08-02T03:51:25.123Z,49.6
2016-08-02T03:52:25.129Z,49.51
2016-08-02T03:53:24.429Z,49.63
2016-08-02T03:54:24.546Z,49.7
2016-08-02T03:55:25.206Z,49.51
2016-08-02T03:56:25.225Z,49.41
2016-08-02T03:57:24.644Z,49.6
2016-08-02T03:58:25.240Z,49.41
2016-08-02T03:59:25.175Z,49.41
2016-08-02T04:00:25.248Z,49.7
2016-08-02T04:01:25.301Z,49.41
2016-08-02T04:02:25.330Z,49.6
2016-08-02T04:03:25.316Z,49.41
2016-08-02T04:04:25.373Z,49.51
2016-08-02T04:05:24.671Z,49.41
2016-08-02T04:06:25.230Z,49.51
2016-08-02T04:07:24.520Z,49.51
2016-08-02T04:08:24.611Z,49.6
2016-08-02T04:09:25.249Z,49.6
2016-08-02T04:10:24.674Z,49.51
2016-08-02T04:11:24.660Z,49.51
2016-08-02T04:12:24.641Z,49.41
2016-08-02T04:13:24.639Z,49.41
2016-08-02T04:14:25.378Z,49.8
2016-08-02T04:15:24.711Z,49.32
2016-08-02T04:16:25.489Z,49.22
2016-08-02T04:17:25.401Z,49.7
2016-08-02T04:18:24.589Z,49.7
2016-08-02T04:19:25.321Z,49.6
2016-08-02T04:20:25.408Z,49.41
2016-08-02T04:21:24.696Z,49.32
2016-08-02T04:22:26.162Z,49.51
2016-08-02T04:23:25.422Z,49.8
2016-08-02T04:24:24.674Z,49.8
2016-08-02T04:25:25.547Z,49.8
2016-08-02T04:26:25.361Z,49.6
2016-08-02T04:27:25.452Z,49.7
2016-08-02T04:28:25.385Z,49.32
2016-08-02T04:29:25.462Z,49.51
2016-08-02T04:30:24.806Z,49.51
2016-08-02T04:31:25.571Z,49.7
2016-08-02T04:32:25.554Z,49.32
2016-08-02T04:33:26.462Z,49.7
2016-08-02T04:34:25.451Z,49.51
2016-08-02T04:35:25.457Z,49.51
2016-08-02T04:36:25.509Z,49.6
2016-08-02T04:37:25.533Z,49.6
2016-08-02T04:38:24.796Z,49.7
2016-08-02T04:40:24.844Z,49.6
2016-08-02T04:41:25.519Z,49.6
2016-08-02T04:42:25.450Z,49.6
2016-08-02T04:43:25.459Z,49.6
2016-08-02T04:44:25.877Z,49.32
2016-08-02T04:45:25.629Z,49.41
2016-08-02T04:46:25.621Z,49.8
2016-08-02T04:47:25.557Z,49.7
2016-08-02T04:48:25.673Z,49.7
2016-08-02T04:49:25.549Z,49.8
2016-08-02T04:50:24.898Z,49.8
2016-08-02T04:51:25.512Z,49.32
2016-08-02T04:52:25.643Z,49.51
2016-08-02T04:53:24.877Z,49.51
2016-08-02T04:55:25.026Z,49.22
2016-08-02T04:56:25.542Z,49.41
2016-08-02T04:57:25.957Z,49.41
2016-08-02T04:58:24.945Z,49.8
2016-08-02T04:59:25.562Z,49.8
2016-08-02T05:00:25.025Z,49.8
2016-08-02T05:01:25.588Z,49.8
2016-08-02T05:02:25.584Z,49.12
2016-08-02T05:03:25.684Z,49.32
2016-08-02T05:04:24.943Z,49.22
2016-08-02T05:05:25.289Z,49.32
2016-08-02T05:06:25.767Z,49.51
2016-08-02T05:07:25.707Z,49.41
2016-08-02T05:08:25.746Z,49.41
2016-08-02T05:10:24.924Z,49.6
2016-08-02T05:11:24.931Z,49.51
2016-08-02T05:12:25.752Z,49.7
2016-08-02T05:13:25.922Z,49.7
2016-08-02T05:14:25.748Z,49.6
2016-08-02T05:15:25.663Z,49.41
2016-08-02T05:16:25.005Z,49.7
2016-08-02T05:17:25.692Z,49.8
2016-08-02T05:18:25.785Z,49.8
2016-08-02T05:19:25.691Z,49.7
2016-08-02T05:20:25.789Z,49.7
2016-08-02T05:21:25.754Z,49.7
2016-08-02T05:22:25.807Z,49.41
2016-08-02T05:23:25.771Z,49.7
2016-08-02T05:25:25.869Z,49.51
2016-08-02T05:26:25.819Z,49.41
2016-08-02T05:27:25.084Z,49.7
2016-08-02T05:28:25.121Z,49.6
2016-08-02T05:29:25.895Z,49.7
2016-08-02T05:30:25.057Z,49.41
2016-08-02T05:31:25.133Z,49.41
2016-08-02T05:32:25.925Z,49.51
2016-08-02T05:33:25.157Z,49.6
2016-08-02T05:34:25.200Z,49.6
2016-08-02T05:35:26.211Z,49.41
2016-08-02T05:36:25.093Z,49.51
2016-08-02T05:37:25.936Z,49.7
2016-08-02T05:38:25.873Z,49.7
2016-08-02T05:40:25.115Z,49.32
2016-08-02T05:41:25.832Z,49.41
2016-08-02T05:42:25.869Z,49.7
2016-08-02T05:43:25.138Z,49.22
2016-08-02T05:44:25.154Z,49.22
2016-08-02T05:45:25.924Z,49.51
2016-08-02T05:46:25.861Z,49.41
2016-08-02T05:47:25.986Z,49.51
2016-08-02T05:48:26.077Z,49.51
2016-08-02T05:49:25.881Z,49.8
2016-08-02T05:50:25.967Z,49.7
2016-08-02T05:51:25.192Z,49.7
2016-08-02T05:52:25.983Z,49.6
2016-08-02T05:53:25.931Z,49.7
2016-08-02T05:55:25.917Z,49.32
2016-08-02T05:56:25.936Z,49.41
2016-08-02T05:57:25.314Z,49.6
2016-08-02T05:58:25.280Z,49.99
2016-08-02T05:59:25.238Z,49.51
2016-08-02T06:00:26.040Z,49.8
2016-08-02T06:01:26.039Z,49.7
2016-08-02T06:02:26.031Z,49.51
2016-08-02T06:03:25.978Z,49.51
2016-08-02T06:04:26.164Z,49.41
2016-08-02T06:05:25.276Z,49.6
2016-08-02T06:06:26.040Z,49.41
2016-08-02T06:07:26.070Z,49.7
2016-08-02T06:08:26.138Z,49.32
2016-08-02T06:10:26.108Z,49.7
2016-08-02T06:11:26.111Z,49.41
2016-08-02T06:12:26.231Z,49.41
2016-08-02T06:13:26.105Z,49.6
2016-08-02T06:14:26.042Z,49.6
2016-08-02T06:15:26.252Z,49.51
2016-08-02T06:16:26.070Z,49.7
2016-08-02T06:17:25.355Z,49.7
2016-08-02T06:18:25.413Z,49.51
2016-08-02T06:19:26.123Z,49.41
2016-08-02T06:20:25.498Z,49.6
2016-08-02T06:21:25.434Z,49.41
2016-08-02T06:22:26.106Z,49.51
2016-08-02T06:23:26.100Z,49.41
2016-08-02T06:25:26.125Z,49.6
2016-08-02T06:26:25.424Z,49.41
2016-08-02T06:27:26.281Z,49.6
2016-08-02T06:28:26.134Z,49.99
2016-08-02T06:29:25.465Z,49.7
2016-08-02T06:30:25.442Z,49.7
2016-08-02T06:31:25.501Z,49.22
2016-08-02T06:32:26.202Z,49.6
2016-08-02T06:33:26.164Z,49.8
2016-08-02T06:34:26.191Z,49.99
2016-08-02T06:35:26.221Z,49.8
2016-08-02T06:36:25.480Z,49.8
2016-08-02T06:37:25.483Z,49.6
2016-08-02T06:38:26.295Z,49.7
2016-08-02T06:39:25.579Z,49.32
2016-08-02T06:40:25.505Z,49.9
2016-08-02T06:41:26.216Z,49.7
2016-08-02T06:42:25.517Z,49.99
2016-08-02T06:43:25.523Z,49.41
2016-08-02T06:44:25.530Z,49.9
2016-08-02T06:45:26.338Z,49.51
2016-08-02T06:46:25.545Z,49.7
2016-08-02T06:47:26.307Z,49.7
2016-08-02T06:48:26.341Z,49.99
2016-08-02T06:49:26.398Z,49.9
2016-08-02T06:50:26.367Z,49.8
2016-08-02T06:51:25.664Z,49.9
2016-08-02T06:52:25.669Z,49.6
2016-08-02T06:53:26.294Z,49.8
2016-08-02T06:54:26.388Z,49.99
2016-08-02T06:55:26.315Z,50.18
2016-08-02T06:56:25.658Z,50.18
2016-08-02T06:57:25.615Z,49.8
2016-08-02T06:58:26.378Z,49.9
2016-08-02T06:59:25.853Z,50.09
2016-08-02T07:00:26.469Z,50.09
2016-08-02T07:01:25.789Z,49.99
2016-08-02T07:02:26.481Z,49.99
2016-08-02T07:03:26.360Z,49.8
2016-08-02T07:04:25.658Z,49.99
2016-08-02T07:05:26.425Z,50.09
2016-08-02T07:06:26.496Z,49.9
2016-08-02T07:07:26.385Z,49.99
2016-08-02T07:08:26.393Z,49.99
2016-08-02T07:09:25.747Z,49.99
2016-08-02T07:10:26.405Z,50.09
2016-08-02T07:11:25.728Z,50.28
2016-08-02T07:12:26.512Z,49.99
2016-08-02T07:13:26.441Z,49.9
2016-08-02T07:14:26.488Z,49.99
2016-08-02T07:15:26.521Z,50.28
2016-08-02T07:16:27.631Z,49.99
2016-08-02T07:17:25.838Z,49.99
2016-08-02T07:18:26.508Z,49.99
2016-08-02T07:19:26.555Z,50.28
2016-08-02T07:20:26.518Z,50.28
2016-08-02T07:21:26.565Z,50.28
2016-08-02T07:22:26.691Z,49.99
2016-08-02T07:23:26.565Z,49.99
2016-08-02T07:24:26.615Z,50.09
2016-08-02T07:25:25.794Z,49.99
2016-08-02T07:26:26.664Z,50.28
2016-08-02T07:27:26.555Z,49.99
2016-08-02T07:28:26.521Z,49.99
2016-08-02T07:29:26.527Z,50.48
2016-08-02T07:30:25.828Z,50.09
2016-08-02T07:31:26.629Z,50.28
2016-08-02T07:32:26.546Z,50.28
2016-08-02T07:33:25.898Z,50.09
2016-08-02T07:34:26.571Z,50.09
2016-08-02T07:35:25.860Z,49.99
2016-08-02T07:36:26.015Z,50.09
2016-08-02T07:37:25.873Z,50.18
2016-08-02T07:38:26.585Z,50.28
2016-08-02T07:39:26.148Z,49.99
2016-08-02T07:40:26.672Z,50.09
2016-08-02T07:41:26.603Z,50.09
2016-08-02T07:42:25.907Z,49.9
2016-08-02T07:43:26.632Z,50.38
2016-08-02T07:44:25.916Z,49.99
2016-08-02T07:45:26.746Z,50.18
2016-08-02T07:46:26.637Z,50.18
2016-08-02T07:47:25.939Z,49.99
2016-08-02T07:48:26.731Z,49.99
2016-08-02T07:49:26.129Z,50.28
2016-08-02T07:50:26.665Z,50.18
2016-08-02T07:51:25.982Z,50.38
2016-08-02T07:52:26.728Z,50.18
2016-08-02T07:53:25.978Z,50.18
2016-08-02T07:54:26.750Z,49.99
2016-08-02T07:55:26.042Z,49.99
2016-08-02T07:56:26.786Z,50.38
2016-08-02T07:57:26.826Z,50.28
2016-08-02T07:58:26.864Z,50.57
2016-08-02T07:59:26.848Z,50.38
2016-08-02T08:00:26.075Z,50.67
2016-08-02T08:01:26.815Z,50.67
2016-08-02T08:02:26.034Z,50.67
2016-08-02T08:03:26.230Z,50.76
2016-08-02T08:04:26.050Z,50.76
2016-08-02T08:05:26.810Z,50.76
2016-08-02T08:06:26.060Z,50.76
2016-08-02T08:07:26.774Z,50.38
2016-08-02T08:08:26.074Z,50.67
2016-08-02T08:09:26.786Z,50.57
2016-08-02T08:10:26.872Z,50.38
2016-08-02T08:11:26.094Z,50.28
2016-08-02T08:12:26.152Z,50.09
2016-08-02T08:13:26.107Z,50.38
2016-08-02T08:14:26.899Z,50.38
2016-08-02T08:15:26.119Z,50.38
2016-08-02T08:16:26.886Z,50.48
2016-08-02T08:17:26.134Z,50.67
2016-08-02T08:18:26.195Z,50.18
2016-08-02T08:19:26.146Z,50.96
2016-08-02T08:20:26.943Z,50.57
2016-08-02T08:21:26.921Z,50.67
2016-08-02T08:22:26.165Z,50.67
2016-08-02T08:23:26.875Z,50.84
2016-08-02T08:24:26.176Z,50.76
2016-08-02T08:25:26.981Z,50.67
2016-08-02T08:26:26.898Z,50.28
2016-08-02T08:27:26.198Z,50.28
2016-08-02T08:28:26.206Z,50.28
2016-08-02T08:29:26.918Z,50.57
2016-08-02T08:30:26.935Z,50.48
2016-08-02T08:31:26.224Z,50.67
2016-08-02T08:32:26.940Z,50.57
2016-08-02T08:33:26.942Z,50.57
2016-08-02T08:34:26.956Z,50.67
2016-08-02T08:35:26.251Z,50.09
2016-08-02T08:36:26.961Z,50.48
2016-08-02T08:37:26.973Z,50.18
2016-08-02T08:38:26.977Z,50.09
2016-08-02T08:39:26.985Z,50.18
2016-08-02T08:40:26.282Z,50.18
2016-08-02T08:41:26.997Z,49.99
2016-08-02T08:42:27.003Z,50.28
2016-08-02T08:43:27.010Z,49.99
2016-08-02T08:44:27.017Z,49.99
2016-08-02T08:45:27.020Z,49.99
2016-08-02T08:46:26.322Z,50.09
2016-08-02T08:47:26.329Z,49.99
2016-08-02T08:48:27.045Z,49.99
2016-08-02T08:49:26.342Z,49.99
2016-08-02T08:50:26.352Z,50.18
2016-08-02T08:51:27.064Z,50.09
2016-08-02T08:52:27.071Z,50.57
2016-08-02T08:53:26.369Z,50.18
2016-08-02T08:54:26.377Z,50.28
2016-08-02T08:55:27.091Z,50.86
2016-08-02T08:56:27.095Z,50.67
2016-08-02T08:57:27.102Z,51.15
2016-08-02T08:58:26.404Z,50.67
2016-08-02T08:59:26.411Z,51.35
2016-08-02T09:00:27.155Z,51.44
2016-08-02T09:01:26.423Z,51.35
2016-08-02T09:02:26.860Z,51.25
2016-08-02T09:03:26.799Z,51.15
2016-08-02T09:04:27.571Z,52.29
2016-08-02T09:05:26.748Z,52.19
2016-08-02T09:06:27.668Z,52.09
2016-08-02T09:07:26.844Z,52.22
2016-08-02T09:08:26.861Z,51.93
2016-08-02T09:09:26.653Z,51.93
2016-08-02T09:10:26.484Z,51.61
2016-08-02T09:11:26.492Z,52.39
2016-08-02T09:12:26.498Z,51.73
2016-08-02T09:13:27.536Z,51.73
2016-08-02T09:14:26.511Z,51.83
2016-08-02T09:15:27.221Z,51.54
2016-08-02T09:16:27.233Z,51.73
2016-08-02T09:17:27.234Z,51.73
2016-08-02T09:18:26.641Z,51.64
2016-08-02T09:19:27.245Z,51.93
2016-08-02T09:20:26.545Z,51.83
2016-08-02T09:21:26.607Z,51.83
2016-08-02T09:22:27.327Z,51.73
2016-08-02T09:23:26.564Z,51.83
2016-08-02T09:24:27.286Z,51.73
2016-08-02T09:25:26.582Z,52.02
2016-08-02T09:26:26.587Z,51.83
2016-08-02T09:27:26.590Z,51.83
2016-08-02T09:28:26.647Z,51.64
2016-08-02T09:29:27.311Z,51.35
2016-08-02T09:30:27.318Z,51.83
2016-08-02T09:31:26.617Z,51.83
2016-08-02T09:32:27.333Z,52.41
2016-08-02T09:33:27.337Z,52.29
2016-08-02T09:34:27.351Z,52
2016-08-02T09:35:26.645Z,52.12
2016-08-02T09:36:26.647Z,52.19
2016-08-02T09:37:27.362Z,52.22
2016-08-02T09:38:26.663Z,52.22
2016-08-02T09:39:26.939Z,52.31
2016-08-02T09:40:26.690Z,52.48
2016-08-02T09:41:26.680Z,52.19
2016-08-02T09:42:26.689Z,52.51
2016-08-02T09:43:26.693Z,52.51
2016-08-02T09:44:26.700Z,52.7
2016-08-02T09:45:27.472Z,52.22
2016-08-02T09:46:27.422Z,52.12
2016-08-02T09:47:27.427Z,52.31
2016-08-02T09:48:27.785Z,52.12
2016-08-02T09:49:27.541Z,52.51
2016-08-02T09:50:27.454Z,52.12
2016-08-02T09:51:26.746Z,52.31
2016-08-02T09:52:27.460Z,52.41
2016-08-02T09:53:27.470Z,51.93
2016-08-02T09:54:27.521Z,52.22
2016-08-02T09:56:26.780Z,52.02
2016-08-02T09:57:27.494Z,52.31
2016-08-02T09:58:27.499Z,52.02
2016-08-02T09:59:27.503Z,52.7
2016-08-02T10:00:27.562Z,52.7
2016-08-02T10:01:26.861Z,53.38
2016-08-02T10:02:26.819Z,53.09
2016-08-02T10:03:27.528Z,53.09
2016-08-02T10:04:26.828Z,53.38
2016-08-02T10:05:27.551Z,53.09
2016-08-02T10:06:27.601Z,52.7
2016-08-02T10:07:26.851Z,52.51
2016-08-02T10:08:27.564Z,52.22
2016-08-02T10:09:26.864Z,52.02
2016-08-02T10:11:26.877Z,52.63
2016-08-02T10:12:27.588Z,52.51
2016-08-02T10:13:27.598Z,52.31
2016-08-02T10:14:27.600Z,52.99
2016-08-02T10:15:27.610Z,52.99
2016-08-02T10:16:27.668Z,52.8
2016-08-02T10:17:27.678Z,52.89
2016-08-02T10:18:27.629Z,53.19
2016-08-02T10:19:26.929Z,52.89
2016-08-02T10:20:26.935Z,53.67
2016-08-02T10:21:26.941Z,52.7
2016-08-02T10:22:27.652Z,52.89
2016-08-02T10:23:27.663Z,53.38
2016-08-02T10:24:26.962Z,53.77
2016-08-02T10:26:26.973Z,53.57
2016-08-02T10:27:27.686Z,53.19
2016-08-02T10:28:27.695Z,53.19
2016-08-02T10:29:27.701Z,52.89
2016-08-02T10:30:27.003Z,53.57
2016-08-02T10:31:27.713Z,52.99
2016-08-02T10:32:27.718Z,53.38
2016-08-02T10:33:27.727Z,53.19
2016-08-02T10:34:27.737Z,53.19
2016-08-02T10:35:27.034Z,52.89
2016-08-02T10:36:27.747Z,52.73
2016-08-02T10:37:27.045Z,53.02
2016-08-02T10:38:27.100Z,52.53
2016-08-02T10:39:27.061Z,53.02
2016-08-02T10:41:27.073Z,52.7
2016-08-02T10:42:27.787Z,53.5
2016-08-02T10:43:27.794Z,53.47
2016-08-02T10:44:27.093Z,53.19
2016-08-02T10:45:27.804Z,53.57
2016-08-02T10:46:27.106Z,53.38
2016-08-02T10:47:27.113Z,53.19
2016-08-02T10:48:27.118Z,52.8
2016-08-02T10:49:27.832Z,52.89
2016-08-02T10:50:27.131Z,52.63
2016-08-02T10:51:27.846Z,52.41
2016-08-02T10:52:27.145Z,52.63
2016-08-02T10:53:27.152Z,52.34
2016-08-02T10:54:27.864Z,52.24
2016-08-02T10:56:27.223Z,52.44
2016-08-02T10:57:27.176Z,52.7
2016-08-02T10:58:27.890Z,53.21
2016-08-02T10:59:27.897Z,52.63
2016-08-02T11:00:27.954Z,52.63
2016-08-02T11:01:27.911Z,52.82
2016-08-02T11:02:27.211Z,52.92
2016-08-02T11:03:27.218Z,53.21
2016-08-02T11:04:27.222Z,53.11
2016-08-02T11:05:27.935Z,53.11
2016-08-02T11:06:27.992Z,53.31
2016-08-02T11:07:27.999Z,53.5
2016-08-02T11:08:28.007Z,53.21
2016-08-02T11:09:27.961Z,53.41
2016-08-02T11:11:27.284Z,53.02
2016-08-02T11:12:27.275Z,52.82
2016-08-02T11:13:27.281Z,53.02
2016-08-02T11:14:27.291Z,53.41
2016-08-02T11:15:28.003Z,52.44
2016-08-02T11:16:27.303Z,52.53
2016-08-02T11:17:27.359Z,52.44
2016-08-02T11:18:28.020Z,52.34
2016-08-02T11:19:28.029Z,52.53
2016-08-02T11:20:28.040Z,52.53
2016-08-02T11:21:27.336Z,52.73
2016-08-02T11:22:28.049Z,52.73
2016-08-02T11:23:27.370Z,52.63
2016-08-02T11:24:27.354Z,52.51
2016-08-02T11:25:28.074Z,52.82
2016-08-02T11:26:27.370Z,53.11
2016-08-02T11:27:28.082Z,52.92
2016-08-02T11:28:28.093Z,52.92
2016-08-02T11:29:27.389Z,52.8
2016-08-02T11:30:27.393Z,52.73
2016-08-02T11:31:27.402Z,53.19
2016-08-02T11:32:28.115Z,52.89
2016-08-02T11:33:28.120Z,52.7
2016-08-02T11:34:28.127Z,53.02
2016-08-02T11:35:27.430Z,53.09
2016-08-02T11:36:28.144Z,52.89
2016-08-02T11:37:27.442Z,52.73
2016-08-02T11:38:28.157Z,52.82
2016-08-02T11:39:28.280Z,53.5
2016-08-02T11:40:27.461Z,53.28
2016-08-02T11:41:28.181Z,52.89
2016-08-02T11:42:27.475Z,52.8
2016-08-02T11:43:27.480Z,53.02
2016-08-02T11:44:27.487Z,52.8
2016-08-02T11:45:27.490Z,53.09
2016-08-02T11:46:27.550Z,52.7
2016-08-02T11:47:28.214Z,52.99
2016-08-02T11:48:28.271Z,52.7
2016-08-02T11:49:28.225Z,53.67
2016-08-02T11:50:28.234Z,53.77
2016-08-02T11:52:28.247Z,54.05
2016-08-02T11:53:28.320Z,53.86
2016-08-02T11:54:28.311Z,54.15
2016-08-02T11:55:28.267Z,53.47
2016-08-02T11:56:28.276Z,54.05
2016-08-02T11:57:27.572Z,53.67
2016-08-02T11:58:27.581Z,53.96
2016-08-02T11:59:28.341Z,53.77
2016-08-02T12:00:27.595Z,53.86
2016-08-02T12:01:27.601Z,53.57
2016-08-02T12:02:28.314Z,53.67
2016-08-02T12:03:27.614Z,53.59
2016-08-02T12:04:28.378Z,53.69
2016-08-02T12:05:28.339Z,54.27
2016-08-02T12:06:28.340Z,54.83
2016-08-02T12:07:28.347Z,54.53
2016-08-02T12:08:28.354Z,53.86
2016-08-02T12:09:28.360Z,53.77
2016-08-02T12:10:27.669Z,53.57
2016-08-02T12:11:27.664Z,53.69
2016-08-02T12:12:27.669Z,53.89
2016-08-02T12:13:28.384Z,53.69
2016-08-02T12:14:28.388Z,53.89
2016-08-02T12:15:27.688Z,53.5
2016-08-02T12:16:27.705Z,53.79
2016-08-02T12:17:28.410Z,53.69
2016-08-02T12:18:28.416Z,53.5
2016-08-02T12:19:28.420Z,54.08
2016-08-02T12:20:28.432Z,53.59
2016-08-02T12:21:27.727Z,53.5
2016-08-02T12:22:27.733Z,53.79
2016-08-02T12:23:28.445Z,54.08
2016-08-02T12:24:46.956Z,54.85
2016-08-02T12:25:27.751Z,54.75
2016-08-02T12:26:27.761Z,54.37
2016-08-02T12:27:28.473Z,53.79
2016-08-02T12:28:28.478Z,54.37
2016-08-02T12:29:28.490Z,53.89
2016-08-02T12:30:28.494Z,53.69
2016-08-02T12:31:28.502Z,54.37
2016-08-02T12:32:27.800Z,54.75
2016-08-02T12:33:28.514Z,54.47
2016-08-02T12:34:27.810Z,54.27
2016-08-02T12:35:29.822Z,54.66
2016-08-02T12:36:28.575Z,54.37
2016-08-02T12:37:27.825Z,54.37
2016-08-02T12:38:28.543Z,54.47
2016-08-02T12:39:27.839Z,54.27
2016-08-02T12:40:27.846Z,54.47
2016-08-02T12:41:28.558Z,54.37
2016-08-02T12:42:28.580Z,54.57
2016-08-02T12:43:28.644Z,54.85
2016-08-02T12:44:27.926Z,54.47
2016-08-02T12:45:28.642Z,54.66
2016-08-02T12:46:27.885Z,54.57
2016-08-02T12:47:27.898Z,54.47
2016-08-02T12:48:28.606Z,54.47
2016-08-02T12:49:28.622Z,55.05
2016-08-02T12:50:28.617Z,55.02
2016-08-02T12:51:27.919Z,55.73
2016-08-02T12:52:28.632Z,55.05
2016-08-02T12:53:28.637Z,54.66
2016-08-02T12:54:28.692Z,54.95
2016-08-02T12:55:28.699Z,55.34
2016-08-02T12:56:28.659Z,55.34
2016-08-02T12:57:28.662Z,55.43
2016-08-02T12:58:27.962Z,55.31
2016-08-02T12:59:27.969Z,55.41
2016-08-02T13:00:28.689Z,55.15
2016-08-02T13:01:28.688Z,55.53
2016-08-02T13:02:28.744Z,55.34
2016-08-02T13:03:28.001Z,55.34
2016-08-02T13:04:28.707Z,55.24
2016-08-02T13:05:28.712Z,54.95
2016-08-02T13:06:28.011Z,54.37
2016-08-02T13:07:28.069Z,54.75
2016-08-02T13:08:28.731Z,54.66
2016-08-02T13:09:28.741Z,55.05
2016-08-02T13:10:28.743Z,54.85
2016-08-02T13:11:28.750Z,54.75
2016-08-02T13:12:28.050Z,55.43
2016-08-02T13:13:28.764Z,55.05